createdAt,value
2023-04-26T00:00:09.137Z,982.12
2023-04-26T00:01:09.054Z,982.14
2023-04-26T00:02:09.063Z,982.18
2023-04-26T00:03:09.142Z,982.14
2023-04-26T00:04:09.278Z,982.18
2023-04-26T00:05:09.142Z,982.13
2023-04-26T00:06:09.029Z,982.12
2023-04-26T00:07:09.022Z,982.11
2023-04-26T00:08:09.012Z,982.17
2023-04-26T00:09:08.982Z,982.15
2023-04-26T00:10:08.988Z,982.17
2023-04-26T00:11:08.962Z,982.17
2023-04-26T00:12:08.964Z,982.18
2023-04-26T00:13:08.963Z,982.23
2023-04-26T00:14:08.944Z,982.23
2023-04-26T00:15:08.931Z,982.18
2023-04-26T00:16:09.025Z,982.24
2023-04-26T00:17:08.908Z,982.21
2023-04-26T00:18:09.046Z,982.27
2023-04-26T00:19:08.896Z,982.26
2023-04-26T00:20:08.890Z,982.27
2023-04-26T00:21:08.881Z,982.25
2023-04-26T00:22:08.880Z,982.25
2023-04-26T00:23:08.871Z,982.24
2023-04-26T00:24:08.880Z,982.29
2023-04-26T00:25:08.846Z,982.29
2023-04-26T00:26:08.833Z,982.29
2023-04-26T00:27:08.837Z,982.20
2023-04-26T00:28:08.845Z,982.26
2023-04-26T00:29:08.816Z,982.19
2023-04-26T00:30:08.809Z,982.24
2023-04-26T00:31:08.790Z,982.26
2023-04-26T00:32:08.833Z,982.28
2023-04-26T00:33:08.962Z,982.24
2023-04-26T00:34:09.779Z,982.23
2023-04-26T00:35:08.753Z,982.29
2023-04-26T00:36:08.752Z,982.29
2023-04-26T00:37:08.742Z,982.25
2023-04-26T00:38:08.747Z,982.23
2023-04-26T00:39:08.724Z,982.28
2023-04-26T00:40:08.711Z,982.20
2023-04-26T00:41:08.716Z,982.20
2023-04-26T00:42:08.794Z,982.23
2023-04-26T00:43:08.703Z,982.20
2023-04-26T00:44:08.673Z,982.25
2023-04-26T00:45:08.663Z,982.28
2023-04-26T00:46:08.693Z,982.27
2023-04-26T00:47:08.669Z,982.17
2023-04-26T00:48:08.729Z,982.30
2023-04-26T00:49:08.645Z,982.29
2023-04-26T00:50:08.647Z,982.27
2023-04-26T00:51:08.633Z,982.29
2023-04-26T00:52:08.619Z,982.26
2023-04-26T00:53:08.605Z,982.29
2023-04-26T00:54:08.622Z,982.29
2023-04-26T00:55:08.585Z,982.26
2023-04-26T00:56:08.627Z,982.24
2023-04-26T00:57:08.577Z,982.27
2023-04-26T00:58:08.560Z,982.30
2023-04-26T00:59:08.558Z,982.31
2023-04-26T01:00:08.550Z,982.26
2023-04-26T01:01:08.574Z,982.29
2023-04-26T01:02:08.573Z,982.27
2023-04-26T01:03:08.732Z,982.33
2023-04-26T01:04:08.649Z,982.37
2023-04-26T01:05:08.492Z,982.25
2023-04-26T01:06:08.513Z,982.25
2023-04-26T01:07:08.472Z,982.26
2023-04-26T01:08:08.476Z,982.28
2023-04-26T01:09:08.451Z,982.28
2023-04-26T01:10:08.446Z,982.27
2023-04-26T01:11:08.441Z,982.31
2023-04-26T01:12:08.443Z,982.28
2023-04-26T01:13:08.440Z,982.27
2023-04-26T01:14:09.413Z,982.25
2023-04-26T01:15:08.433Z,982.32
2023-04-26T01:16:08.399Z,982.34
2023-04-26T01:17:08.510Z,982.31
2023-04-26T01:18:08.390Z,982.37
2023-04-26T01:19:08.365Z,982.42
2023-04-26T01:20:08.365Z,982.37
2023-04-26T01:21:08.351Z,982.48
2023-04-26T01:22:08.348Z,982.42
2023-04-26T01:23:08.353Z,982.48
2023-04-26T01:24:08.325Z,982.43
2023-04-26T01:25:08.316Z,982.40
2023-04-26T01:26:08.301Z,982.41
2023-04-26T01:27:08.298Z,982.45
2023-04-26T01:28:08.298Z,982.45
2023-04-26T01:29:08.287Z,982.41
2023-04-26T01:30:08.270Z,982.44
2023-04-26T01:31:08.308Z,982.44
2023-04-26T01:32:08.248Z,982.37
2023-04-26T01:33:08.274Z,982.39
2023-04-26T01:34:08.257Z,982.36
2023-04-26T01:35:08.225Z,982.36
2023-04-26T01:36:08.219Z,982.37
2023-04-26T01:37:08.204Z,982.37
2023-04-26T01:38:08.207Z,982.42
2023-04-26T01:39:08.200Z,982.34
2023-04-26T01:40:08.200Z,982.33
2023-04-26T01:41:08.177Z,982.36
2023-04-26T01:42:08.179Z,982.35
2023-04-26T01:43:08.167Z,982.38
2023-04-26T01:44:08.159Z,982.42
2023-04-26T01:45:08.147Z,982.30
2023-04-26T01:46:08.282Z,982.39
2023-04-26T01:47:08.112Z,982.38
2023-04-26T01:48:08.156Z,982.39
2023-04-26T01:49:08.115Z,982.34
2023-04-26T01:50:08.090Z,982.39
2023-04-26T01:51:08.082Z,982.37
2023-04-26T01:52:08.074Z,982.33
2023-04-26T01:53:08.069Z,982.35
2023-04-26T01:54:08.088Z,982.32
2023-04-26T01:55:08.067Z,982.36
2023-04-26T01:56:08.049Z,982.29
2023-04-26T01:57:08.091Z,982.28
2023-04-26T01:58:08.025Z,982.34
2023-04-26T01:59:08.021Z,982.36
2023-04-26T02:00:08.028Z,982.34
2023-04-26T02:01:08.006Z,982.33
2023-04-26T02:02:09.010Z,982.28
2023-04-26T02:03:08.060Z,982.37
2023-04-26T02:04:07.978Z,982.36
2023-04-26T02:05:08.003Z,982.38
2023-04-26T02:06:07.953Z,982.33
2023-04-26T02:07:07.958Z,982.32
2023-04-26T02:08:07.944Z,982.36
2023-04-26T02:09:07.951Z,982.29
2023-04-26T02:10:07.926Z,982.27
2023-04-26T02:11:07.928Z,982.25
2023-04-26T02:12:07.913Z,982.26
2023-04-26T02:13:07.900Z,982.29
2023-04-26T02:14:07.917Z,982.21
2023-04-26T02:15:07.895Z,982.18
2023-04-26T02:16:07.885Z,982.18
2023-04-26T02:17:07.861Z,982.23
2023-04-26T02:18:07.897Z,982.27
2023-04-26T02:19:07.849Z,982.26
2023-04-26T02:20:07.844Z,982.24
2023-04-26T02:21:07.831Z,982.21
2023-04-26T02:22:07.880Z,982.21
2023-04-26T02:23:07.812Z,982.25
2023-04-26T02:24:07.824Z,982.25
2023-04-26T02:25:07.795Z,982.28
2023-04-26T02:26:07.801Z,982.20
2023-04-26T02:27:07.782Z,982.22
2023-04-26T02:28:07.765Z,982.28
2023-04-26T02:29:07.769Z,982.20
2023-04-26T02:30:08.104Z,982.17
2023-04-26T02:31:07.855Z,982.22
2023-04-26T02:32:07.728Z,982.27
2023-04-26T02:33:07.737Z,982.22
2023-04-26T02:34:07.721Z,982.22
2023-04-26T02:35:07.720Z,982.22
2023-04-26T02:36:07.694Z,982.23
2023-04-26T02:37:07.738Z,982.19
2023-04-26T02:38:07.688Z,982.20
2023-04-26T02:39:07.680Z,982.17
2023-04-26T02:40:07.680Z,982.22
2023-04-26T02:41:07.657Z,982.18
2023-04-26T02:42:07.659Z,982.21
2023-04-26T02:43:07.642Z,982.24
2023-04-26T02:44:07.650Z,982.21
2023-04-26T02:45:07.641Z,982.21
2023-04-26T02:46:07.610Z,982.20
2023-04-26T02:47:07.785Z,982.19
2023-04-26T02:48:07.670Z,982.17
2023-04-26T02:49:07.609Z,982.25
2023-04-26T02:50:07.624Z,982.19
2023-04-26T02:51:07.582Z,982.20
2023-04-26T02:52:07.573Z,982.27
2023-04-26T02:53:07.584Z,982.25
2023-04-26T02:54:07.559Z,982.23
2023-04-26T02:55:07.550Z,982.20
2023-04-26T02:56:07.523Z,982.15
2023-04-26T02:57:07.578Z,982.20
2023-04-26T02:58:07.535Z,982.18
2023-04-26T02:59:07.506Z,982.22
2023-04-26T03:00:07.544Z,982.21
2023-04-26T03:01:07.540Z,982.18
2023-04-26T03:02:07.505Z,982.22
2023-04-26T03:03:07.682Z,982.19
2023-04-26T03:04:07.568Z,982.21
2023-04-26T03:05:07.451Z,982.23
2023-04-26T03:06:07.440Z,982.32
2023-04-26T03:07:07.427Z,982.29
2023-04-26T03:08:07.411Z,982.25
2023-04-26T03:09:07.422Z,982.29
2023-04-26T03:10:07.410Z,982.30
2023-04-26T03:11:07.386Z,982.29
2023-04-26T03:12:07.374Z,982.18
2023-04-26T03:13:07.364Z,982.29
2023-04-26T03:14:07.370Z,982.31
2023-04-26T03:15:07.371Z,982.31
2023-04-26T03:16:07.368Z,982.25
2023-04-26T03:17:08.342Z,982.25
2023-04-26T03:18:07.521Z,982.33
2023-04-26T03:19:07.320Z,982.30
2023-04-26T03:20:07.315Z,982.28
2023-04-26T03:21:07.294Z,982.31
2023-04-26T03:22:07.289Z,982.28
2023-04-26T03:23:07.294Z,982.26
2023-04-26T03:24:07.271Z,982.24
2023-04-26T03:25:07.275Z,982.26
2023-04-26T03:26:07.281Z,982.20
2023-04-26T03:27:07.257Z,982.23
2023-04-26T03:28:07.251Z,982.25
2023-04-26T03:29:07.247Z,982.27
2023-04-26T03:30:07.269Z,982.27
2023-04-26T03:31:07.213Z,982.26
2023-04-26T03:32:07.456Z,982.20
2023-04-26T03:33:07.227Z,982.28
2023-04-26T03:34:07.180Z,982.14
2023-04-26T03:35:07.189Z,982.14
2023-04-26T03:36:07.164Z,982.16
2023-04-26T03:37:07.163Z,982.15
2023-04-26T03:38:07.152Z,982.14
2023-04-26T03:39:07.145Z,982.08
2023-04-26T03:40:07.164Z,982.14
2023-04-26T03:41:07.133Z,982.12
2023-04-26T03:42:07.121Z,982.14
2023-04-26T03:43:07.118Z,982.19
2023-04-26T03:44:07.117Z,982.15
2023-04-26T03:45:07.105Z,982.14
2023-04-26T03:46:07.156Z,982.19
2023-04-26T03:47:07.076Z,982.16
2023-04-26T03:48:07.083Z,982.18
2023-04-26T03:49:07.056Z,982.14
2023-04-26T03:50:07.068Z,982.17
2023-04-26T03:51:07.038Z,982.25
2023-04-26T03:52:07.034Z,982.27
2023-04-26T03:53:07.023Z,982.27
2023-04-26T03:54:07.028Z,982.20
2023-04-26T03:55:07.019Z,982.28
2023-04-26T03:56:06.992Z,982.21
2023-04-26T03:57:06.984Z,982.26
2023-04-26T03:58:06.992Z,982.18
2023-04-26T03:59:06.968Z,982.20
2023-04-26T04:00:06.967Z,982.23
2023-04-26T04:01:06.972Z,982.23
2023-04-26T04:02:07.003Z,982.17
2023-04-26T04:03:07.224Z,982.22
2023-04-26T04:04:07.064Z,982.21
2023-04-26T04:05:06.975Z,982.19
2023-04-26T04:06:07.908Z,982.19
2023-04-26T04:07:06.898Z,982.09
2023-04-26T04:08:06.891Z,982.16
2023-04-26T04:09:06.875Z,982.15
2023-04-26T04:10:06.892Z,982.14
2023-04-26T04:11:06.858Z,982.14
2023-04-26T04:12:06.847Z,982.21
2023-04-26T04:13:06.834Z,982.13
2023-04-26T04:14:06.819Z,982.07
2023-04-26T04:15:07.844Z,982.06
2023-04-26T04:16:06.862Z,982.14
2023-04-26T04:17:06.799Z,982.06
2023-04-26T04:18:06.840Z,982.13
2023-04-26T04:19:06.786Z,982.08
2023-04-26T04:20:06.780Z,982.08
2023-04-26T04:21:06.776Z,982.08
2023-04-26T04:22:06.756Z,982.20
2023-04-26T04:23:06.754Z,982.20
2023-04-26T04:24:06.744Z,982.18
2023-04-26T04:25:06.743Z,982.13
2023-04-26T04:26:06.722Z,982.15
2023-04-26T04:27:06.713Z,982.08
2023-04-26T04:28:06.705Z,982.12
2023-04-26T04:29:06.692Z,982.11
2023-04-26T04:30:06.699Z,982.14
2023-04-26T04:31:06.711Z,982.14
2023-04-26T04:32:06.669Z,982.16
2023-04-26T04:33:06.733Z,982.19
2023-04-26T04:34:06.648Z,982.18
2023-04-26T04:35:06.663Z,982.21
2023-04-26T04:36:06.633Z,982.21
2023-04-26T04:37:06.684Z,982.16
2023-04-26T04:38:06.612Z,982.19
2023-04-26T04:39:06.600Z,982.14
2023-04-26T04:40:06.603Z,982.14
2023-04-26T04:41:06.586Z,982.18
2023-04-26T04:42:06.594Z,982.21
2023-04-26T04:43:06.580Z,982.21
2023-04-26T04:44:06.553Z,982.25
2023-04-26T04:45:06.561Z,982.22
2023-04-26T04:46:06.553Z,982.32
2023-04-26T04:47:06.532Z,982.30
2023-04-26T04:48:06.568Z,982.32
2023-04-26T04:49:06.516Z,982.25
2023-04-26T04:50:06.517Z,982.33
2023-04-26T04:51:06.506Z,982.30
2023-04-26T04:52:06.481Z,982.35
2023-04-26T04:53:06.472Z,982.36
2023-04-26T04:54:06.459Z,982.42
2023-04-26T04:55:06.451Z,982.28
2023-04-26T04:56:06.453Z,982.33
2023-04-26T04:57:06.432Z,982.34
2023-04-26T04:58:06.430Z,982.30
2023-04-26T04:59:06.413Z,982.35
2023-04-26T05:00:06.415Z,982.32
2023-04-26T05:01:06.423Z,982.37
2023-04-26T05:02:06.414Z,982.37
2023-04-26T05:03:06.491Z,982.37
2023-04-26T05:04:06.544Z,982.42
2023-04-26T05:05:06.444Z,982.39
2023-04-26T05:06:06.371Z,982.40
2023-04-26T05:07:06.352Z,982.44
2023-04-26T05:08:06.346Z,982.44
2023-04-26T05:09:06.328Z,982.41
2023-04-26T05:10:06.330Z,982.39
2023-04-26T05:11:06.334Z,982.41
2023-04-26T05:12:06.307Z,982.43
2023-04-26T05:13:06.317Z,982.33
2023-04-26T05:14:06.294Z,982.31
2023-04-26T05:15:06.302Z,982.41
2023-04-26T05:16:06.323Z,982.41
2023-04-26T05:17:06.258Z,982.45
2023-04-26T05:18:06.293Z,982.38
2023-04-26T05:19:09.241Z,982.48
2023-04-26T05:20:06.241Z,982.43
2023-04-26T05:21:06.250Z,982.44
2023-04-26T05:22:06.221Z,982.49
2023-04-26T05:23:06.216Z,982.51
2023-04-26T05:24:06.215Z,982.56
2023-04-26T05:25:06.197Z,982.50
2023-04-26T05:26:06.199Z,982.54
2023-04-26T05:27:07.178Z,982.48
2023-04-26T05:28:06.174Z,982.50
2023-04-26T05:29:06.185Z,982.50
2023-04-26T05:30:06.157Z,982.54
2023-04-26T05:31:06.149Z,982.59
2023-04-26T05:32:06.172Z,982.56
2023-04-26T05:33:06.181Z,982.57
2023-04-26T05:34:06.123Z,982.57
2023-04-26T05:35:06.110Z,982.55
2023-04-26T05:36:06.121Z,982.57
2023-04-26T05:37:06.106Z,982.58
2023-04-26T05:38:06.079Z,982.58
2023-04-26T05:39:06.076Z,982.63
2023-04-26T05:40:06.064Z,982.62
2023-04-26T05:41:06.066Z,982.67
2023-04-26T05:42:06.045Z,982.63
2023-04-26T05:43:06.038Z,982.66
2023-04-26T05:44:06.118Z,982.74
2023-04-26T05:45:06.028Z,982.68
2023-04-26T05:46:06.038Z,982.67
2023-04-26T05:47:05.999Z,982.66
2023-04-26T05:48:06.030Z,982.65
2023-04-26T05:49:05.992Z,982.72
2023-04-26T05:50:05.969Z,982.68
2023-04-26T05:51:05.969Z,982.68
2023-04-26T05:52:05.953Z,982.70
2023-04-26T05:53:05.941Z,982.65
2023-04-26T05:54:05.944Z,982.72
2023-04-26T05:55:05.931Z,982.72
2023-04-26T05:56:05.918Z,982.72
2023-04-26T05:57:05.914Z,982.72
2023-04-26T05:58:05.904Z,982.74
2023-04-26T05:59:05.897Z,982.69
2023-04-26T06:00:05.890Z,982.77
2023-04-26T06:01:05.880Z,982.74
2023-04-26T06:02:05.873Z,982.76
2023-04-26T06:03:06.034Z,982.81
2023-04-26T06:04:06.159Z,982.80
2023-04-26T06:05:05.979Z,982.79
2023-04-26T06:06:05.840Z,982.71
2023-04-26T06:07:05.814Z,982.80
2023-04-26T06:08:05.799Z,982.84
2023-04-26T06:09:05.832Z,982.85
2023-04-26T06:10:05.794Z,982.89
2023-04-26T06:11:05.794Z,982.87
2023-04-26T06:12:05.779Z,982.91
2023-04-26T06:13:05.765Z,982.84
2023-04-26T06:14:05.778Z,982.92
2023-04-26T06:15:05.741Z,982.88
2023-04-26T06:16:05.748Z,982.91
2023-04-26T06:17:05.758Z,982.93
2023-04-26T06:18:05.766Z,982.87
2023-04-26T06:19:05.725Z,982.87
2023-04-26T06:20:05.700Z,982.93
2023-04-26T06:21:05.707Z,982.88
2023-04-26T06:22:05.684Z,982.91
2023-04-26T06:23:05.691Z,982.76
2023-04-26T06:24:05.671Z,982.80
2023-04-26T06:25:05.675Z,982.84
2023-04-26T06:26:05.661Z,982.88
2023-04-26T06:27:05.643Z,982.81
2023-04-26T06:28:05.638Z,982.82
2023-04-26T06:29:05.623Z,982.86
2023-04-26T06:30:05.645Z,982.78
2023-04-26T06:31:05.644Z,982.83
2023-04-26T06:32:05.615Z,982.91
2023-04-26T06:33:05.626Z,982.85
2023-04-26T06:34:05.585Z,982.79
2023-04-26T06:35:05.580Z,982.79
2023-04-26T06:36:05.588Z,982.83
2023-04-26T06:37:05.555Z,982.85
2023-04-26T06:38:05.548Z,982.84
2023-04-26T06:39:05.559Z,982.76
2023-04-26T06:40:05.549Z,982.80
2023-04-26T06:41:05.543Z,982.81
2023-04-26T06:42:05.513Z,982.84
2023-04-26T06:43:05.497Z,982.85
2023-04-26T06:44:05.529Z,982.80
2023-04-26T06:45:05.478Z,982.88
2023-04-26T06:46:05.503Z,982.92
2023-04-26T06:47:05.469Z,982.87
2023-04-26T06:48:05.522Z,982.89
2023-04-26T06:49:05.440Z,982.79
2023-04-26T06:50:05.460Z,982.85
2023-04-26T06:51:05.425Z,982.91
2023-04-26T06:52:05.423Z,982.87
2023-04-26T06:53:05.400Z,982.83
2023-04-26T06:54:05.510Z,982.88
2023-04-26T06:55:05.383Z,982.86
2023-04-26T06:56:05.380Z,982.89
2023-04-26T06:57:05.372Z,982.88
2023-04-26T06:58:05.355Z,982.79
2023-04-26T06:59:05.348Z,982.91
2023-04-26T07:00:05.340Z,982.97
2023-04-26T07:01:05.338Z,983.03
2023-04-26T07:02:05.394Z,982.99
2023-04-26T07:03:05.578Z,982.94
2023-04-26T07:04:05.338Z,982.88
2023-04-26T07:05:05.400Z,982.86
2023-04-26T07:06:05.299Z,982.88
2023-04-26T07:07:05.261Z,982.93
2023-04-26T07:08:05.240Z,982.90
2023-04-26T07:09:05.254Z,982.97
2023-04-26T07:10:05.240Z,982.95
2023-04-26T07:11:05.365Z,983.01
2023-04-26T07:12:05.236Z,983.02
2023-04-26T07:13:05.774Z,983.00
2023-04-26T07:14:05.198Z,983.00
2023-04-26T07:15:05.180Z,983.01
2023-04-26T07:16:05.192Z,983.05
2023-04-26T07:17:05.184Z,983.03
2023-04-26T07:18:05.195Z,983.02
2023-04-26T07:19:05.143Z,983.03
2023-04-26T07:20:05.149Z,983.02
2023-04-26T07:21:05.121Z,983.05
2023-04-26T07:22:05.126Z,983.09
2023-04-26T07:23:05.102Z,983.07
2023-04-26T07:24:05.096Z,983.08
2023-04-26T07:25:05.347Z,983.11
2023-04-26T07:26:05.089Z,983.06
2023-04-26T07:27:05.078Z,983.15
2023-04-26T07:28:05.057Z,983.09
2023-04-26T07:29:05.043Z,983.10
2023-04-26T07:30:05.037Z,983.20
2023-04-26T07:31:07.098Z,983.11
2023-04-26T07:32:05.054Z,983.14
2023-04-26T07:33:05.059Z,983.07
2023-04-26T07:34:04.998Z,983.08
2023-04-26T07:35:04.990Z,983.09
2023-04-26T07:36:04.990Z,983.08
2023-04-26T07:37:04.967Z,983.07
2023-04-26T07:38:04.964Z,983.09
2023-04-26T07:39:04.944Z,983.12
2023-04-26T07:40:04.935Z,983.15
2023-04-26T07:41:04.967Z,983.18
2023-04-26T07:42:04.922Z,983.15
2023-04-26T07:43:04.915Z,983.19
2023-04-26T07:44:04.902Z,983.10
2023-04-26T07:45:04.896Z,983.15
2023-04-26T07:46:04.982Z,983.18
2023-04-26T07:47:04.874Z,983.18
2023-04-26T07:48:04.852Z,983.14
2023-04-26T07:49:04.838Z,983.18
2023-04-26T07:50:04.899Z,983.14
2023-04-26T07:51:04.822Z,983.14
2023-04-26T07:52:04.832Z,983.14
2023-04-26T07:53:04.799Z,983.12
2023-04-26T07:54:04.933Z,983.12
2023-04-26T07:55:04.798Z,983.07
2023-04-26T07:56:04.772Z,983.15
2023-04-26T07:57:04.780Z,983.13
2023-04-26T07:58:04.746Z,983.14
2023-04-26T07:59:05.750Z,983.14
2023-04-26T08:00:04.741Z,983.15
2023-04-26T08:01:04.713Z,983.17
2023-04-26T08:02:04.744Z,983.06
2023-04-26T08:03:04.836Z,983.20
2023-04-26T08:04:04.989Z,983.20
2023-04-26T08:05:04.777Z,983.17
2023-04-26T08:06:04.926Z,983.23
2023-04-26T08:07:04.715Z,983.18
2023-04-26T08:08:04.654Z,983.15
2023-04-26T08:09:04.636Z,983.14
2023-04-26T08:10:04.634Z,983.10
2023-04-26T08:11:04.626Z,983.02
2023-04-26T08:12:04.664Z,983.09
2023-04-26T08:13:04.603Z,983.02
2023-04-26T08:14:05.585Z,983.05
2023-04-26T08:15:04.564Z,983.09
2023-04-26T08:16:04.581Z,983.08
2023-04-26T08:17:04.619Z,983.10
2023-04-26T08:18:04.579Z,983.04
2023-04-26T08:19:04.527Z,983.06
2023-04-26T08:20:05.517Z,983.13
2023-04-26T08:21:04.517Z,983.14
2023-04-26T08:22:04.521Z,983.12
2023-04-26T08:23:04.501Z,983.11
2023-04-26T08:24:04.498Z,983.14
2023-04-26T08:25:04.478Z,983.17
2023-04-26T08:26:04.683Z,983.18
2023-04-26T08:27:04.465Z,983.14
2023-04-26T08:28:04.440Z,983.22
2023-04-26T08:29:04.449Z,983.14
2023-04-26T08:30:04.416Z,983.19
2023-04-26T08:31:04.467Z,983.17
2023-04-26T08:32:04.410Z,983.15
2023-04-26T08:33:04.397Z,983.13
2023-04-26T08:34:04.389Z,983.11
2023-04-26T08:35:04.371Z,983.09
2023-04-26T08:36:04.359Z,983.22
2023-04-26T08:37:04.364Z,983.16
2023-04-26T08:38:04.382Z,983.18
2023-04-26T08:39:04.329Z,983.13
2023-04-26T08:40:04.317Z,983.22
2023-04-26T08:41:04.316Z,983.31
2023-04-26T08:42:04.314Z,983.17
2023-04-26T08:43:04.287Z,983.24
2023-04-26T08:44:04.284Z,983.25
2023-04-26T08:45:04.284Z,983.31
2023-04-26T08:46:04.274Z,983.29
2023-04-26T08:47:04.266Z,983.25
2023-04-26T08:48:04.763Z,983.31
2023-04-26T08:49:05.229Z,983.23
2023-04-26T08:50:04.228Z,983.30
2023-04-26T08:51:04.211Z,983.28
2023-04-26T08:52:04.211Z,983.24
2023-04-26T08:53:04.185Z,983.34
2023-04-26T08:54:04.951Z,983.29
2023-04-26T08:55:05.169Z,983.28
2023-04-26T08:56:04.162Z,983.28
2023-04-26T08:57:04.163Z,983.28
2023-04-26T08:58:04.282Z,983.29
2023-04-26T08:59:04.133Z,983.26
2023-04-26T09:00:04.123Z,983.21
2023-04-26T09:01:04.115Z,983.31
2023-04-26T09:02:04.125Z,983.24
2023-04-26T09:03:04.185Z,983.24
2023-04-26T09:04:04.192Z,983.22
2023-04-26T09:05:04.254Z,983.21
2023-04-26T09:06:04.989Z,983.23
2023-04-26T09:07:04.073Z,983.23
2023-04-26T09:08:04.041Z,983.21
2023-04-26T09:09:04.047Z,983.17
2023-04-26T09:10:04.015Z,983.22
2023-04-26T09:11:04.012Z,983.23
2023-04-26T09:12:04.012Z,983.24
2023-04-26T09:13:03.991Z,983.15
2023-04-26T09:14:05.021Z,983.20
2023-04-26T09:15:03.972Z,983.16
2023-04-26T09:16:05.018Z,983.14
2023-04-26T09:17:04.960Z,983.13
2023-04-26T09:18:04.001Z,983.10
2023-04-26T09:19:03.926Z,983.12
2023-04-26T09:20:05.922Z,983.19
2023-04-26T09:21:03.912Z,983.14
2023-04-26T09:22:03.925Z,983.12
2023-04-26T09:23:03.883Z,983.12
2023-04-26T09:24:03.869Z,983.15
2023-04-26T09:25:03.857Z,983.15
2023-04-26T09:26:03.856Z,983.19
2023-04-26T09:27:03.845Z,983.14
2023-04-26T09:28:03.986Z,983.17
2023-04-26T09:29:03.814Z,983.07
2023-04-26T09:30:03.815Z,983.12
2023-04-26T09:31:03.806Z,983.13
2023-04-26T09:32:03.803Z,983.09
2023-04-26T09:33:03.858Z,983.13
2023-04-26T09:34:03.761Z,983.13
2023-04-26T09:35:03.754Z,983.15
2023-04-26T09:36:03.731Z,983.16
2023-04-26T09:37:04.758Z,983.10
2023-04-26T09:38:08.673Z,983.08
2023-04-26T09:39:05.711Z,983.12
2023-04-26T09:40:03.701Z,983.10
2023-04-26T09:41:03.684Z,983.06
2023-04-26T09:42:03.684Z,983.11
2023-04-26T09:43:03.685Z,983.08
2023-04-26T09:44:03.668Z,983.11
2023-04-26T09:45:03.647Z,983.09
2023-04-26T09:46:03.653Z,983.11
2023-04-26T09:47:03.675Z,983.09
2023-04-26T09:48:03.704Z,983.11
2023-04-26T09:49:03.615Z,983.16
2023-04-26T09:50:03.597Z,983.19
2023-04-26T09:51:03.585Z,983.11
2023-04-26T09:52:03.580Z,983.15
2023-04-26T09:53:03.580Z,983.12
2023-04-26T09:54:03.566Z,983.16
2023-04-26T09:55:03.559Z,983.17
2023-04-26T09:56:03.534Z,983.11
2023-04-26T09:57:03.530Z,983.13
2023-04-26T09:58:03.529Z,983.16
2023-04-26T09:59:03.505Z,983.01
2023-04-26T10:00:03.501Z,983.07
2023-04-26T10:01:03.636Z,983.06
2023-04-26T10:02:03.481Z,983.07
2023-04-26T10:03:03.532Z,983.05
2023-04-26T10:04:03.505Z,983.10
2023-04-26T10:05:03.490Z,983.10
2023-04-26T10:06:03.476Z,983.09
2023-04-26T10:07:03.417Z,983.06
2023-04-26T10:08:03.418Z,983.00
2023-04-26T10:09:03.387Z,982.96
2023-04-26T10:10:03.373Z,982.98
2023-04-26T10:11:03.372Z,983.06
2023-04-26T10:12:03.426Z,983.04
2023-04-26T10:13:03.366Z,983.01
2023-04-26T10:14:03.345Z,982.97
2023-04-26T10:15:03.341Z,982.96
2023-04-26T10:16:03.367Z,983.00
2023-04-26T10:17:03.337Z,983.01
2023-04-26T10:18:03.341Z,982.98
2023-04-26T10:19:03.282Z,983.02
2023-04-26T10:20:03.277Z,982.99
2023-04-26T10:21:03.261Z,982.94
2023-04-26T10:22:03.254Z,982.99
2023-04-26T10:23:03.256Z,983.00
2023-04-26T10:24:03.239Z,983.02
2023-04-26T10:25:04.229Z,983.01
2023-04-26T10:26:03.213Z,983.04
2023-04-26T10:27:03.204Z,982.98
2023-04-26T10:28:03.197Z,983.00
2023-04-26T10:29:03.608Z,983.04
2023-04-26T10:30:03.167Z,983.01
2023-04-26T10:31:03.160Z,983.07
2023-04-26T10:32:03.229Z,983.04
2023-04-26T10:33:03.192Z,983.06
2023-04-26T10:34:03.160Z,983.04
2023-04-26T10:35:03.119Z,983.07
2023-04-26T10:36:03.112Z,982.98
2023-04-26T10:37:03.095Z,982.98
2023-04-26T10:38:03.109Z,983.01
2023-04-26T10:39:03.080Z,982.97
2023-04-26T10:40:03.074Z,983.03
2023-04-26T10:41:03.052Z,983.04
2023-04-26T10:42:03.048Z,982.98
2023-04-26T10:43:03.049Z,983.09
2023-04-26T10:44:03.036Z,983.07
2023-04-26T10:45:03.014Z,983.07
2023-04-26T10:46:03.072Z,983.08
2023-04-26T10:47:02.996Z,983.07
2023-04-26T10:48:03.016Z,983.01
2023-04-26T10:49:02.973Z,983.07
2023-04-26T10:50:04.333Z,983.07
2023-04-26T10:51:02.958Z,983.02
2023-04-26T10:52:02.937Z,983.04
2023-04-26T10:53:02.962Z,983.03
2023-04-26T10:54:02.927Z,983.01
2023-04-26T10:55:02.914Z,983.01
2023-04-26T10:56:02.915Z,983.02
2023-04-26T10:57:02.892Z,983.00
2023-04-26T10:58:02.872Z,982.92
2023-04-26T10:59:04.917Z,982.95
2023-04-26T11:00:03.865Z,982.95
2023-04-26T11:01:02.909Z,982.95
2023-04-26T11:02:02.839Z,982.90
2023-04-26T11:03:02.904Z,982.90
2023-04-26T11:04:02.906Z,982.82
2023-04-26T11:05:02.898Z,982.85
2023-04-26T11:06:02.902Z,982.88
2023-04-26T11:07:02.789Z,982.77
2023-04-26T11:08:02.791Z,982.84
2023-04-26T11:09:02.783Z,982.83
2023-04-26T11:10:02.785Z,982.84
2023-04-26T11:11:02.772Z,982.81
2023-04-26T11:12:02.739Z,982.72
2023-04-26T11:13:02.747Z,982.73
2023-04-26T11:14:03.748Z,982.77
2023-04-26T11:15:02.726Z,982.79
2023-04-26T11:16:02.736Z,982.76
2023-04-26T11:17:02.698Z,982.77
2023-04-26T11:18:02.750Z,982.75
2023-04-26T11:19:02.694Z,982.81
2023-04-26T11:20:02.661Z,982.74
2023-04-26T11:21:02.660Z,982.85
2023-04-26T11:22:02.683Z,982.85
2023-04-26T11:23:02.670Z,982.89
2023-04-26T11:24:03.630Z,982.83
2023-04-26T11:25:02.627Z,982.90
2023-04-26T11:26:02.612Z,982.88
2023-04-26T11:27:02.585Z,982.91
2023-04-26T11:28:02.598Z,982.90
2023-04-26T11:29:02.594Z,982.86
2023-04-26T11:30:02.592Z,982.87
2023-04-26T11:31:02.551Z,982.86
2023-04-26T11:32:02.539Z,982.83
2023-04-26T11:33:02.564Z,982.87
2023-04-26T11:34:02.523Z,982.88
2023-04-26T11:35:02.500Z,982.88
2023-04-26T11:36:02.501Z,982.83
2023-04-26T11:37:02.487Z,982.89
2023-04-26T11:38:02.493Z,982.84
2023-04-26T11:39:02.516Z,982.82
2023-04-26T11:40:02.465Z,982.93
2023-04-26T11:41:02.457Z,982.91
2023-04-26T11:42:02.435Z,982.93
2023-04-26T11:43:02.436Z,982.87
2023-04-26T11:44:02.483Z,982.85
2023-04-26T11:45:02.426Z,982.86
2023-04-26T11:46:02.391Z,982.91
2023-04-26T11:47:02.477Z,982.84
2023-04-26T11:48:02.418Z,982.90
2023-04-26T11:49:02.413Z,982.88
2023-04-26T11:50:02.384Z,982.86
2023-04-26T11:51:02.349Z,982.87
2023-04-26T11:52:02.361Z,982.90
2023-04-26T11:53:02.330Z,982.87
2023-04-26T11:54:02.430Z,982.87
2023-04-26T11:55:02.326Z,982.84
2023-04-26T11:56:02.305Z,982.86
2023-04-26T11:57:02.287Z,982.88
2023-04-26T11:58:02.273Z,982.83
2023-04-26T11:59:02.324Z,982.89
2023-04-26T12:00:02.262Z,982.92
2023-04-26T12:01:02.287Z,982.84
2023-04-26T12:02:02.280Z,982.85
2023-04-26T12:03:02.392Z,982.78
2023-04-26T12:04:02.349Z,982.80
2023-04-26T12:05:02.482Z,982.83
2023-04-26T12:06:02.208Z,982.82
2023-04-26T12:07:02.178Z,982.81
2023-04-26T12:08:02.174Z,982.88
2023-04-26T12:09:02.178Z,982.85
2023-04-26T12:10:02.177Z,982.86
2023-04-26T12:11:02.253Z,982.84
2023-04-26T12:12:03.130Z,982.91
2023-04-26T12:13:02.129Z,982.90
2023-04-26T12:14:02.121Z,982.91
2023-04-26T12:15:02.098Z,982.91
2023-04-26T12:16:03.845Z,982.96
2023-04-26T12:17:03.199Z,982.88
2023-04-26T12:18:02.090Z,982.96
2023-04-26T12:19:02.067Z,982.91
2023-04-26T12:20:02.049Z,982.93
2023-04-26T12:21:02.039Z,983.00
2023-04-26T12:22:02.055Z,982.92
2023-04-26T12:23:02.030Z,982.99
2023-04-26T12:24:02.018Z,982.93
2023-04-26T12:25:02.009Z,982.89
2023-04-26T12:26:02.308Z,982.88
2023-04-26T12:27:02.612Z,982.95
2023-04-26T12:28:02.966Z,982.89